Algood, Tennessee
Current Conditions -  °F | °C
As of 5:35 AM on Saturday 20 Dec 2014 (Local Time) from KSRB Reporting Station
Few Clouds Few Clouds  
Wind Chill:   Ceiling: Unl
Heat Index:   Visibility: 10mi
Dew Point: -2°   Wind: 0mph
Humidity: 87%   Direction: NA
Pressure: 30.19"   Gusts: NA
Location:  36.1802°N, 85.4582°W
Report Text: KSRB 201135Z AUTO 00000KT 10SM FEW050 00/M02 A3019 RMK
Loading
Personal Weather Stations






























Interactive Weather Map New forecast layout! Learn more

10-Day Weather Forecast

Advertisements
Track Severe Weather on mobile